Time;durP1;ratioP1;P1;durP2;ratioP2;P2;SDS_P1;SDS_P2;PMS_P1;PMS_P2;Temp;Humidity;BMP_temperature;BMP_pressure;BME280_temperature;BME280_humidity;BME280_pressure;Samples;Min_cycle;Max_cycle;Signal;HPM_P1;HPM_P2
2022/05/30 00:01:37;;;;;;;5.85;1.00;;;10.10;99.90;;;;;;5054398;28;20105;-72
2022/05/30 00:04:03;;;;;;;1.42;0.63;;;10.20;99.90;;;;;;5053731;28;20147;-71
2022/05/30 00:06:29;;;;;;;2.28;0.90;;;10.30;99.90;;;;;;5054248;28;20043;-72
2022/05/30 00:08:55;;;;;;;1.20;0.90;;;10.30;99.90;;;;;;5054117;28;20029;-72
2022/05/30 00:11:22;;;;;;;5.18;0.90;;;10.40;99.90;;;;;;5053780;28;20040;-72
2022/05/30 00:13:49;;;;;;;1.55;0.57;;;10.60;99.90;;;;;;5054132;28;20032;-71
2022/05/30 00:16:18;;;;;;;1.83;0.77;;;10.60;99.90;;;;;;5053600;28;20032;-71
2022/05/30 00:18:44;;;;;;;1.88;0.82;;;10.50;99.90;;;;;;5053666;28;20025;-71
2022/05/30 00:21:10;;;;;;;1.70;0.63;;;10.40;99.90;;;;;;5052729;28;20466;-71
2022/05/30 00:23:36;;;;;;;2.70;0.80;;;10.50;99.90;;;;;;5053839;28;20100;-72
2022/05/30 00:26:05;;;;;;;2.20;0.68;;;10.50;99.90;;;;;;5053590;28;20040;-71
2022/05/30 00:28:31;;;;;;;5.85;1.05;;;10.50;99.90;;;;;;5053530;28;20035;-72
2022/05/30 00:30:57;;;;;;;1.42;0.60;;;10.60;99.90;;;;;;5053503;28;20510;-71
2022/05/30 00:33:23;;;;;;;2.45;0.98;;;10.70;99.90;;;;;;5053336;28;20033;-71
2022/05/30 00:35:48;;;;;;;5.70;1.10;;;10.70;99.90;;;;;;5053481;28;20483;-72
2022/05/30 00:38:14;;;;;;;1.48;0.75;;;10.80;99.90;;;;;;5053193;28;20063;-71
2022/05/30 00:40:40;;;;;;;4.43;1.10;;;10.80;99.90;;;;;;5053177;28;20134;-72
2022/05/30 00:43:28;;;;;;;3.00;0.95;;;10.80;99.90;;;;;;5053208;28;20028;-71
2022/05/30 00:46:00;;;;;;;0.95;0.55;;;10.80;99.90;;;;;;5053200;28;20032;-71
2022/05/30 00:48:31;;;;;;;2.05;0.80;;;10.70;99.90;;;;;;5053275;28;20029;-72
2022/05/30 00:51:02;;;;;;;1.38;0.90;;;10.80;99.90;;;;;;5053243;28;20100;-72
2022/05/30 00:53:29;;;;;;;3.20;1.30;;;10.70;99.90;;;;;;5052069;28;20416;-71
2022/05/30 00:55:55;;;;;;;2.53;0.98;;;10.70;99.90;;;;;;5052881;28;20053;-72
2022/05/30 00:58:22;;;;;;;3.50;1.10;;;10.60;99.90;;;;;;5053037;28;20574;-71
2022/05/30 01:00:48;;;;;;;3.92;0.80;;;10.60;99.90;;;;;;5053043;28;20032;-71
2022/05/30 01:08:43;;;;;;;1.52;0.77;;;10.50;99.90;;;;;;5052325;28;20040;-71
2022/05/30 01:11:09;;;;;;;1.20;0.70;;;10.40;99.90;;;;;;5053119;28;20028;-71
2022/05/30 01:13:38;;;;;;;1.63;0.63;;;10.40;99.90;;;;;;5053032;28;20033;-71
2022/05/30 01:16:05;;;;;;;2.15;0.90;;;10.20;99.90;;;;;;5053024;28;20078;-72
2022/05/30 01:18:54;;;;;;;2.17;0.80;;;10.40;99.90;;;;;;5052780;28;20047;-72
2022/05/30 01:21:51;;;;;;;2.30;0.90;;;10.50;99.90;;;;;;5052731;28;20049;-72
2022/05/30 01:24:33;;;;;;;1.13;0.77;;;10.40;99.90;;;;;;5052891;28;20386;-72
2022/05/30 01:27:41;;;;;;;2.08;0.85;;;10.40;99.90;;;;;;5052325;28;20033;-71
2022/05/30 01:30:11;;;;;;;1.67;1.00;;;10.50;99.90;;;;;;5052821;28;20033;-71
2022/05/30 01:32:37;;;;;;;1.88;0.80;;;10.60;99.90;;;;;;5052882;28;20037;-71
2022/05/30 01:35:03;;;;;;;2.08;1.10;;;10.60;99.90;;;;;;5052729;28;20029;-71
2022/05/30 01:37:29;;;;;;;2.35;0.95;;;10.70;99.90;;;;;;5052763;28;20053;-71
2022/05/30 01:39:54;;;;;;;2.25;1.00;;;10.70;99.90;;;;;;5052511;28;20510;-72
2022/05/30 01:42:21;;;;;;;2.55;1.02;;;10.80;99.90;;;;;;5052664;28;20028;-72
2022/05/30 01:44:46;;;;;;;3.22;1.00;;;10.80;99.90;;;;;;5052828;28;20104;-72
2022/05/30 01:47:12;;;;;;;3.15;1.00;;;10.70;99.90;;;;;;5052505;28;20128;-72
2022/05/30 01:49:38;;;;;;;1.58;0.75;;;10.80;99.90;;;;;;5052517;28;20025;-71
2022/05/30 01:52:04;;;;;;;1.75;0.77;;;10.90;99.90;;;;;;5052669;28;20033;-71
2022/05/30 01:54:30;;;;;;;3.38;0.90;;;10.80;99.90;;;;;;5052454;28;20039;-71
2022/05/30 01:56:55;;;;;;;1.60;0.80;;;10.70;99.90;;;;;;5052359;28;20379;-71
2022/05/30 01:59:21;;;;;;;3.08;1.25;;;10.90;99.90;;;;;;5052378;28;20040;-71
2022/05/30 02:01:47;;;;;;;2.20;0.90;;;11.00;99.90;;;;;;5052544;28;20052;-71
2022/05/30 02:04:14;;;;;;;3.60;1.00;;;11.00;99.90;;;;;;5052403;28;20049;-71
2022/05/30 02:06:40;;;;;;;1.23;0.68;;;11.00;99.90;;;;;;5052491;28;20057;-71
2022/05/30 02:09:06;;;;;;;1.92;0.93;;;10.90;99.90;;;;;;5052275;28;20443;-71
2022/05/30 02:11:31;;;;;;;2.17;1.13;;;10.90;99.90;;;;;;5052382;28;20032;-71
2022/05/30 02:13:57;;;;;;;2.45;1.17;;;10.90;99.90;;;;;;5052340;28;20025;-72
2022/05/30 02:19:09;;;;;;;3.55;1.08;;;10.80;99.90;;;;;;5052574;28;20044;-71
2022/05/30 02:21:35;;;;;;;2.92;1.08;;;10.90;99.90;;;;;;5055899;28;20056;-71
2022/05/30 02:24:03;;;;;;;3.60;0.90;;;11.00;99.90;;;;;;5056145;28;20025;-71
2022/05/30 02:26:28;;;;;;;2.72;0.95;;;11.10;99.90;;;;;;5054612;28;20083;-72
2022/05/30 02:28:54;;;;;;;3.10;0.95;;;11.00;99.90;;;;;;5055928;28;20028;-72
2022/05/30 02:31:20;;;;;;;1.60;0.70;;;10.90;99.90;;;;;;5056142;28;20037;-71
2022/05/30 02:36:47;;;;;;;1.73;0.80;;;11.00;99.90;;;;;;5053585;28;20025;-71
2022/05/30 02:39:16;;;;;;;1.42;0.70;;;11.00;99.90;;;;;;5055272;28;20037;-72
2022/05/30 02:41:44;;;;;;;2.17;0.82;;;11.00;99.90;;;;;;5055801;28;20403;-72
2022/05/30 02:44:11;;;;;;;1.85;1.00;;;11.10;99.90;;;;;;5055624;28;20043;-72
2022/05/30 02:46:37;;;;;;;2.05;0.80;;;11.10;99.90;;;;;;5055348;28;20451;-72
2022/05/30 02:49:03;;;;;;;2.70;1.33;;;11.00;99.90;;;;;;5055647;28;20376;-71
2022/05/30 02:51:30;;;;;;;3.08;0.98;;;10.70;99.90;;;;;;5055713;28;20525;-71
2022/05/30 02:53:56;;;;;;;2.85;0.90;;;10.70;99.90;;;;;;5055745;28;20029;-71
2022/05/30 02:56:21;;;;;;;2.00;0.75;;;10.60;99.90;;;;;;5055650;28;20071;-71
2022/05/30 02:58:48;;;;;;;1.83;0.70;;;10.50;99.90;;;;;;5055293;28;20108;-71
2022/05/30 03:01:14;;;;;;;2.90;0.80;;;10.50;99.90;;;;;;5055455;28;20032;-70
2022/05/30 03:03:40;;;;;;;3.88;0.85;;;10.50;99.90;;;;;;5034255;28;20479;-70
2022/05/30 03:06:06;;;;;;;2.80;0.93;;;10.60;99.90;;;;;;5009065;28;20069;-70
2022/05/30 03:08:32;;;;;;;2.17;0.80;;;10.70;99.90;;;;;;5009809;28;20111;-70
2022/05/30 03:10:57;;;;;;;3.17;1.00;;;10.70;99.90;;;;;;5009596;28;20077;-70
2022/05/30 03:13:23;;;;;;;1.65;0.80;;;10.50;99.90;;;;;;5009946;28;20025;-71
2022/05/30 03:15:49;;;;;;;1.65;0.75;;;10.40;99.90;;;;;;5009814;28;20026;-70
2022/05/30 03:18:14;;;;;;;3.70;1.23;;;10.40;99.90;;;;;;5006970;28;20038;-70
2022/05/30 03:20:40;;;;;;;7.60;0.88;;;10.60;99.90;;;;;;5006597;28;20325;-70
2022/05/30 03:23:06;;;;;;;2.20;0.75;;;10.70;99.90;;;;;;5008030;28;20340;-70
2022/05/30 03:25:32;;;;;;;2.15;1.00;;;10.60;99.90;;;;;;5009661;28;20029;-70
2022/05/30 03:27:58;;;;;;;2.13;0.98;;;10.60;99.90;;;;;;5009546;28;20030;-70
2022/05/30 03:30:24;;;;;;;4.18;1.15;;;10.40;99.90;;;;;;5009946;28;20030;-70
2022/05/30 03:32:50;;;;;;;2.08;0.85;;;10.40;99.90;;;;;;5009228;28;20034;-70
2022/05/30 03:35:16;;;;;;;3.38;1.15;;;10.40;99.90;;;;;;5009957;28;20030;-70
2022/05/30 03:37:43;;;;;;;3.33;0.85;;;10.40;99.90;;;;;;5010284;28;20030;-70
2022/05/30 03:40:12;;;;;;;2.15;1.00;;;10.40;99.90;;;;;;5009502;28;20026;-70
2022/05/30 03:42:37;;;;;;;5.38;1.08;;;10.50;99.90;;;;;;5008380;28;20034;-70
2022/05/30 03:45:05;;;;;;;3.30;1.20;;;10.40;99.90;;;;;;5026369;28;20411;-70
2022/05/30 03:47:44;;;;;;;4.40;1.00;;;10.40;99.90;;;;;;5029351;28;20041;-70
2022/05/30 03:50:13;;;;;;;2.20;0.93;;;10.50;99.90;;;;;;5029020;28;20038;-70
2022/05/30 03:52:38;;;;;;;3.03;1.02;;;10.60;99.90;;;;;;5029278;28;20271;-70
2022/05/30 03:55:07;;;;;;;1.55;0.73;;;10.70;99.90;;;;;;5028834;28;20267;-70
2022/05/30 03:57:32;;;;;;;1.70;0.70;;;10.70;99.90;;;;;;5028007;28;20471;-70
2022/05/30 03:59:58;;;;;;;2.20;1.10;;;10.80;99.90;;;;;;5026143;28;20036;-70
2022/05/30 04:02:25;;;;;;;2.92;0.80;;;10.80;99.90;;;;;;5025586;28;20103;-70
2022/05/30 04:04:51;;;;;;;2.65;1.10;;;10.80;99.90;;;;;;5025518;28;20045;-70
2022/05/30 04:07:17;;;;;;;1.50;0.80;;;10.80;99.90;;;;;;5025810;28;20490;-70
2022/05/30 04:09:42;;;;;;;2.35;0.95;;;10.80;99.90;;;;;;5025976;28;20097;-70
2022/05/30 04:12:08;;;;;;;2.28;0.93;;;10.60;99.90;;;;;;5025714;28;20499;-70
2022/05/30 04:14:34;;;;;;;3.03;0.73;;;10.70;99.90;;;;;;5025851;28;20490;-70
2022/05/30 04:17:00;;;;;;;1.40;0.93;;;10.60;99.90;;;;;;5025724;28;20557;-70
2022/05/30 04:19:25;;;;;;;1.98;0.80;;;10.60;99.90;;;;;;5025154;28;20029;-70
2022/05/30 04:21:51;;;;;;;2.95;1.00;;;10.50;99.90;;;;;;5025421;28;20021;-70
2022/05/30 04:24:17;;;;;;;1.55;0.80;;;10.50;99.90;;;;;;5024873;28;20736;-70
2022/05/30 04:26:44;;;;;;;1.45;0.73;;;10.40;99.90;;;;;;5025459;28;20183;-70
2022/05/30 04:29:09;;;;;;;2.75;0.80;;;10.30;99.90;;;;;;5025194;28;20072;-70
2022/05/30 04:31:35;;;;;;;3.35;0.63;;;10.30;99.90;;;;;;5025218;28;20480;-70
2022/05/30 04:34:01;;;;;;;2.95;1.00;;;10.50;99.90;;;;;;5025263;28;20487;-70
2022/05/30 04:36:27;;;;;;;2.10;0.88;;;10.80;99.90;;;;;;5025236;28;20026;-70
2022/05/30 04:38:53;;;;;;;4.28;0.80;;;10.80;99.90;;;;;;5024786;28;20033;-70
2022/05/30 04:41:18;;;;;;;2.47;0.93;;;10.70;99.90;;;;;;5024738;28;20040;-70
2022/05/30 04:43:44;;;;;;;5.18;1.00;;;10.60;99.90;;;;;;5024425;28;20033;-70
2022/05/30 04:46:16;;;;;;;3.70;0.98;;;10.60;99.90;;;;;;5025282;28;20124;-70
2022/05/30 04:48:43;;;;;;;1.30;0.70;;;10.70;99.90;;;;;;5024977;28;20068;-70
2022/05/30 04:51:10;;;;;;;2.00;1.00;;;10.90;99.90;;;;;;5024486;28;20483;-70
2022/05/30 04:53:36;;;;;;;2.67;0.80;;;10.90;99.90;;;;;;5024340;28;20036;-70
2022/05/30 04:56:02;;;;;;;2.90;1.10;;;11.10;99.90;;;;;;5024992;28;20101;-70
2022/05/30 04:58:28;;;;;;;3.35;1.38;;;11.10;99.90;;;;;;5025154;28;20033;-70
2022/05/30 05:00:58;;;;;;;3.50;1.33;;;11.20;99.90;;;;;;5024851;28;20324;-70
2022/05/30 05:03:24;;;;;;;1.73;0.80;;;11.20;99.90;;;;;;5024504;28;20432;-70
2022/05/30 05:05:50;;;;;;;1.90;0.60;;;11.40;99.90;;;;;;5024603;28;20387;-70
2022/05/30 05:08:19;;;;;;;2.17;0.93;;;11.50;99.90;;;;;;5024336;28;20029;-70
2022/05/30 05:11:03;;;;;;;3.22;0.90;;;11.60;99.90;;;;;;5024391;28;20040;-70
2022/05/30 05:13:29;;;;;;;1.38;0.80;;;11.60;99.90;;;;;;5024489;28;20039;-70
2022/05/30 05:15:56;;;;;;;3.42;1.17;;;11.60;99.90;;;;;;5024759;28;20026;-70
2022/05/30 05:18:22;;;;;;;2.00;1.00;;;11.60;99.90;;;;;;5024332;28;20079;-70
2022/05/30 05:20:48;;;;;;;4.07;1.15;;;11.70;99.90;;;;;;5024705;28;20026;-70
2022/05/30 05:23:13;;;;;;;3.78;1.88;;;11.60;99.90;;;;;;5024289;28;20047;-70
2022/05/30 05:25:40;;;;;;;3.92;1.20;;;11.60;99.90;;;;;;5018346;28;20030;-72
2022/05/30 05:28:07;;;;;;;2.67;1.40;;;11.60;99.90;;;;;;5005755;28;20033;-72
2022/05/30 05:30:33;;;;;;;2.10;1.02;;;11.70;99.90;;;;;;5005826;28;20026;-71
2022/05/30 05:33:00;;;;;;;1.88;1.00;;;11.60;99.90;;;;;;5004927;28;20033;-72
2022/05/30 05:35:26;;;;;;;3.15;1.27;;;11.70;99.90;;;;;;5005704;28;20045;-71
2022/05/30 05:37:51;;;;;;;3.65;1.25;;;11.70;99.90;;;;;;5005723;28;20050;-71
2022/05/30 05:40:17;;;;;;;5.30;1.67;;;11.60;99.90;;;;;;5006167;28;20026;-71
2022/05/30 05:42:43;;;;;;;1.88;0.90;;;11.60;99.90;;;;;;5005105;28;20033;-71
2022/05/30 05:45:09;;;;;;;3.13;0.80;;;11.50;99.90;;;;;;5005110;28;20036;-71
2022/05/30 05:47:35;;;;;;;0.82;0.47;;;11.50;99.90;;;;;;5005380;28;20038;-71
2022/05/30 05:50:02;;;;;;;3.00;1.13;;;11.50;99.90;;;;;;5005572;28;20065;-72
2022/05/30 05:52:32;;;;;;;3.08;0.90;;;11.50;99.90;;;;;;5005554;28;20084;-71
2022/05/30 05:54:58;;;;;;;2.13;0.90;;;11.50;99.90;;;;;;5007225;28;20028;-71
2022/05/30 05:57:28;;;;;;;1.38;0.82;;;11.50;99.90;;;;;;5009657;28;20018;-72
2022/05/30 05:59:54;;;;;;;1.50;0.70;;;11.60;99.90;;;;;;5009319;28;20072;-71
2022/05/30 06:02:20;;;;;;;2.95;0.85;;;11.60;99.90;;;;;;5008676;28;20034;-71
2022/05/30 06:04:46;;;;;;;2.42;0.90;;;11.60;99.90;;;;;;5008938;28;20500;-71
2022/05/30 06:07:12;;;;;;;4.55;1.48;;;11.60;99.90;;;;;;5008891;28;20033;-72
2022/05/30 06:09:39;;;;;;;2.20;0.80;;;11.60;99.90;;;;;;5009470;28;20030;-71
2022/05/30 06:12:07;;;;;;;2.88;1.02;;;11.70;99.90;;;;;;5009114;28;20026;-71
2022/05/30 06:14:33;;;;;;;1.63;0.73;;;11.80;99.90;;;;;;5008818;28;20032;-71
2022/05/30 06:16:59;;;;;;;1.88;0.98;;;11.80;99.90;;;;;;5008913;28;20408;-72
2022/05/30 06:19:24;;;;;;;2.85;0.98;;;11.90;99.90;;;;;;5008895;28;20038;-72
2022/05/30 06:21:50;;;;;;;4.65;1.15;;;11.90;99.90;;;;;;5008790;28;20518;-71
2022/05/30 06:24:16;;;;;;;6.93;1.10;;;12.00;99.90;;;;;;5008556;28;20022;-71
2022/05/30 06:26:45;;;;;;;1.63;1.02;;;11.90;99.90;;;;;;5008329;28;20598;-72
2022/05/30 06:29:12;;;;;;;1.95;0.90;;;12.00;99.90;;;;;;5008455;28;20036;-71
2022/05/30 06:31:39;;;;;;;2.35;1.08;;;12.00;99.90;;;;;;5008381;28;20029;-71
2022/05/30 06:34:04;;;;;;;3.42;0.80;;;12.20;99.90;;;;;;5008900;28;20497;-72
2022/05/30 06:36:31;;;;;;;1.92;0.70;;;12.20;99.90;;;;;;5008591;28;20109;-71
2022/05/30 06:38:57;;;;;;;4.40;1.00;;;12.30;99.90;;;;;;5007623;28;20755;-72
2022/05/30 06:41:25;;;;;;;1.73;0.82;;;12.40;99.90;;;;;;5008586;28;20026;-72
2022/05/30 06:43:56;;;;;;;2.97;1.00;;;12.50;99.90;;;;;;5007959;28;20115;-72
2022/05/30 06:46:22;;;;;;;1.50;0.70;;;12.60;99.90;;;;;;5011003;28;20292;-72
2022/05/30 06:48:48;;;;;;;4.32;0.93;;;12.70;99.90;;;;;;5011418;28;20225;-71
2022/05/30 06:51:18;;;;;;;5.63;1.02;;;12.80;99.90;;;;;;5011845;28;20029;-72
2022/05/30 06:53:44;;;;;;;6.30;1.45;;;12.90;99.90;;;;;;5011609;28;20381;-72
2022/05/30 06:56:24;;;;;;;3.17;1.10;;;13.00;99.90;;;;;;5011633;28;20025;-72
2022/05/30 06:58:51;;;;;;;3.00;0.80;;;13.20;99.90;;;;;;5011469;28;20054;-72
2022/05/30 07:01:19;;;;;;;2.03;0.98;;;13.40;99.90;;;;;;5011342;28;20192;-71
2022/05/30 07:03:47;;;;;;;3.25;1.05;;;13.50;99.90;;;;;;5010971;28;20053;-72
2022/05/30 07:06:20;;;;;;;2.45;0.80;;;13.80;99.90;;;;;;5009853;28;20117;-72
2022/05/30 07:08:46;;;;;;;2.08;0.82;;;13.90;99.90;;;;;;5010681;28;20033;-72
2022/05/30 07:11:14;;;;;;;2.25;0.80;;;14.20;99.90;;;;;;5010797;28;20036;-71
2022/05/30 07:13:39;;;;;;;1.58;0.90;;;14.40;99.90;;;;;;5010817;28;20022;-71
2022/05/30 07:16:06;;;;;;;2.40;1.10;;;14.80;99.50;;;;;;5010916;28;20030;-72
2022/05/30 07:18:32;;;;;;;2.05;0.95;;;14.80;99.20;;;;;;5010794;28;20030;-71
2022/05/30 07:21:04;;;;;;;2.35;1.15;;;14.90;98.80;;;;;;5010746;28;20026;-71
2022/05/30 07:23:32;;;;;;;2.80;0.60;;;15.00;98.40;;;;;;5010555;28;20030;-72
2022/05/30 07:25:58;;;;;;;2.15;0.80;;;14.80;98.50;;;;;;5010686;28;20040;-72
2022/05/30 07:28:28;;;;;;;1.90;0.77;;;14.80;98.00;;;;;;5010308;28;20033;-71
2022/05/30 07:31:04;;;;;;;3.22;0.70;;;15.50;96.80;;;;;;5010819;28;20443;-72
2022/05/30 07:33:31;;;;;;;3.70;0.73;;;16.90;95.40;;;;;;5007784;28;20034;-72
2022/05/30 07:35:57;;;;;;;3.22;0.82;;;16.40;95.10;;;;;;5007436;28;20029;-72
2022/05/30 07:38:22;;;;;;;2.63;0.93;;;17.10;95.30;;;;;;5009498;28;20026;-71
2022/05/30 07:40:48;;;;;;;1.45;0.75;;;17.60;94.70;;;;;;5010432;28;20038;-71
2022/05/30 07:43:14;;;;;;;3.33;1.00;;;17.50;96.00;;;;;;5010124;28;20061;-72
2022/05/30 07:45:40;;;;;;;2.13;0.73;;;17.00;96.00;;;;;;5010391;28;20026;-72
2022/05/30 07:48:07;;;;;;;2.33;0.80;;;17.60;96.00;;;;;;5010259;28;20041;-71
2022/05/30 07:50:35;;;;;;;2.28;0.90;;;16.50;96.60;;;;;;5009744;28;20037;-72
2022/05/30 07:53:00;;;;;;;1.35;0.60;;;18.20;95.60;;;;;;5009874;28;20061;-72
2022/05/30 07:55:26;;;;;;;2.83;1.05;;;18.10;93.90;;;;;;5010271;28;20072;-72
2022/05/30 07:57:52;;;;;;;2.53;0.80;;;17.40;94.60;;;;;;5010111;28;20101;-71
2022/05/30 08:00:20;;;;;;;3.05;0.80;;;17.10;94.90;;;;;;5010100;28;20161;-72
2022/05/30 08:02:46;;;;;;;3.80;0.75;;;16.80;94.90;;;;;;5009974;28;20057;-71
2022/05/30 08:05:13;;;;;;;3.67;1.20;;;16.30;95.20;;;;;;5009635;28;20488;-72
2022/05/30 08:07:39;;;;;;;2.58;0.93;;;16.20;96.10;;;;;;5010310;28;20116;-72
2022/05/30 08:10:06;;;;;;;4.22;0.95;;;16.30;95.90;;;;;;5010338;28;20168;-71
2022/05/30 08:12:32;;;;;;;1.38;0.70;;;16.40;96.80;;;;;;5010020;28;20034;-71
2022/05/30 08:14:58;;;;;;;2.47;1.33;;;16.20;95.60;;;;;;5010041;28;20079;-72
2022/05/30 08:17:24;;;;;;;5.55;1.02;;;15.80;95.50;;;;;;5009470;28;20030;-71
2022/05/30 08:19:50;;;;;;;0.98;0.55;;;15.90;95.70;;;;;;5009495;28;20038;-72
2022/05/30 08:22:16;;;;;;;2.20;0.73;;;16.00;96.20;;;;;;5009958;28;20061;-72
2022/05/30 08:24:47;;;;;;;2.03;0.60;;;16.10;96.40;;;;;;5009817;28;20486;-71
2022/05/30 08:27:14;;;;;;;1.92;0.73;;;16.10;96.30;;;;;;5009725;28;20103;-72
2022/05/30 08:29:39;;;;;;;2.10;1.02;;;16.50;96.60;;;;;;5009838;28;20022;-71
2022/05/30 08:32:06;;;;;;;2.55;1.00;;;16.40;96.10;;;;;;5009954;28;20108;-72
2022/05/30 08:34:35;;;;;;;1.67;0.90;;;16.10;96.30;;;;;;5009445;28;20522;-72
2022/05/30 08:37:02;;;;;;;2.65;0.90;;;16.10;97.40;;;;;;5009329;28;20024;-71
2022/05/30 08:42:12;;;;;;;1.80;0.90;;;17.20;96.20;;;;;;5009458;28;20072;-72
2022/05/30 08:44:38;;;;;;;3.40;0.65;;;16.90;95.70;;;;;;5009434;28;20523;-72
2022/05/30 08:47:29;;;;;;;4.30;1.20;;;17.00;95.50;;;;;;5009299;28;20038;-72
2022/05/30 08:50:07;;;;;;;2.70;1.20;;;17.00;94.80;;;;;;5009312;28;20025;-71
2022/05/30 08:52:41;;;;;;;4.57;1.02;;;16.80;95.10;;;;;;5009195;28;20104;-71
2022/05/30 08:55:20;;;;;;;3.63;1.10;;;16.90;96.20;;;;;;5009044;28;20061;-71
2022/05/30 08:58:02;;;;;;;2.28;1.00;;;17.20;95.60;;;;;;5009546;28;20022;-71
2022/05/30 09:00:35;;;;;;;2.75;1.00;;;16.90;95.60;;;;;;5009430;28;20026;-72
2022/05/30 09:03:16;;;;;;;1.48;0.63;;;17.20;95.50;;;;;;5009316;28;20032;-71
2022/05/30 09:05:50;;;;;;;1.95;0.82;;;17.80;95.60;;;;;;5009005;28;20072;-72
2022/05/30 09:08:45;;;;;;;4.32;0.88;;;17.90;94.60;;;;;;5009268;28;20613;-71
2022/05/30 09:11:33;;;;;;;2.10;0.80;;;17.60;94.60;;;;;;5008459;28;20042;-72
2022/05/30 09:14:11;;;;;;;3.25;1.00;;;17.20;94.10;;;;;;5008839;28;20518;-71
2022/05/30 09:16:41;;;;;;;2.88;1.05;;;17.50;95.60;;;;;;5009005;28;20065;-72
2022/05/30 09:19:10;;;;;;;1.85;0.80;;;18.00;94.30;;;;;;5008962;28;20025;-71
2022/05/30 09:21:37;;;;;;;1.63;0.80;;;18.00;94.20;;;;;;5009025;28;20057;-71
2022/05/30 09:24:03;;;;;;;2.92;0.85;;;18.40;94.50;;;;;;5008685;28;20026;-72
2022/05/30 09:26:33;;;;;;;2.55;0.80;;;18.40;94.20;;;;;;5008283;28;20733;-72
2022/05/30 09:29:08;;;;;;;2.92;1.13;;;18.30;94.00;;;;;;5007867;28;20049;-72
2022/05/30 09:31:44;;;;;;;2.10;0.73;;;17.80;94.40;;;;;;5008699;28;20476;-71
2022/05/30 09:34:31;;;;;;;2.05;1.10;;;18.00;94.50;;;;;;5008342;28;20029;-72
2022/05/30 09:36:57;;;;;;;2.05;0.80;;;18.50;94.60;;;;;;5008498;28;20072;-71
2022/05/30 09:39:23;;;;;;;2.20;0.98;;;18.40;93.80;;;;;;5008640;28;20030;-71
2022/05/30 09:42:01;;;;;;;2.08;1.20;;;18.50;94.50;;;;;;5008901;28;20036;-71
2022/05/30 09:44:42;;;;;;;2.50;1.20;;;19.10;94.50;;;;;;5008791;28;20018;-72
2022/05/30 09:47:17;;;;;;;2.38;0.93;;;19.70;94.80;;;;;;5008753;28;20061;-71
2022/05/30 09:49:46;;;;;;;2.90;0.82;;;20.00;93.60;;;;;;5008685;28;20037;-72
2022/05/30 09:52:33;;;;;;;1.77;0.75;;;19.40;93.40;;;;;;5008783;28;20111;-72
2022/05/30 09:55:01;;;;;;;3.72;1.05;;;19.50;93.50;;;;;;5008811;28;20064;-71
2022/05/30 09:57:42;;;;;;;5.03;0.90;;;19.90;92.70;;;;;;5008614;28;20487;-72
2022/05/30 10:00:13;;;;;;;1.75;0.73;;;20.20;92.00;;;;;;5008733;28;20054;-72
2022/05/30 10:02:44;;;;;;;3.42;0.82;;;19.80;91.90;;;;;;5007467;28;20391;-72
2022/05/30 10:05:31;;;;;;;2.25;0.88;;;19.90;93.80;;;;;;5007203;28;20065;-72
2022/05/30 10:08:03;;;;;;;2.20;0.77;;;20.30;91.90;;;;;;5007902;28;20034;-72
2022/05/30 10:10:31;;;;;;;2.60;0.80;;;20.60;92.40;;;;;;5008415;28;20054;-72
2022/05/30 10:13:00;;;;;;;1.77;0.70;;;20.60;91.70;;;;;;5008339;28;20051;-72
2022/05/30 10:15:35;;;;;;;1.80;0.70;;;20.50;91.60;;;;;;5008325;28;20038;-72
2022/05/30 10:18:13;;;;;;;1.63;0.80;;;20.90;92.10;;;;;;5008263;28;20042;-72
2022/05/30 10:21:10;;;;;;;1.23;0.45;;;20.80;91.10;;;;;;5008376;28;20052;-72
2022/05/30 10:29:25;;;;;;;3.50;0.60;;;21.00;90.60;;;;;;5008091;28;20034;-72
2022/05/30 10:32:10;;;;;;;2.53;0.88;;;21.10;91.70;;;;;;5008551;28;20034;-72
2022/05/30 10:35:01;;;;;;;0.90;0.50;;;21.00;92.10;;;;;;5008600;28;20061;-72
2022/05/30 10:37:46;;;;;;;1.00;0.50;;;21.50;90.70;;;;;;5007806;28;20419;-72
2022/05/30 10:40:40;;;;;;;1.08;0.50;;;21.90;90.50;;;;;;5008268;28;20042;-72
2022/05/30 10:43:13;;;;;;;4.93;0.70;;;22.20;89.40;;;;;;5011742;28;20510;-72
2022/05/30 10:45:54;;;;;;;2.10;0.80;;;22.10;88.10;;;;;;5011540;28;20045;-72
2022/05/30 10:48:31;;;;;;;2.58;0.80;;;22.00;87.50;;;;;;5011523;28;20032;-72
2022/05/30 10:51:05;;;;;;;3.33;0.50;;;22.00;88.70;;;;;;5011614;28;20030;-72
2022/05/30 10:53:58;;;;;;;2.28;0.60;;;21.40;90.10;;;;;;5011458;28;20483;-72
2022/05/30 10:56:48;;;;;;;2.45;0.60;;;21.20;86.40;;;;;;5011342;28;20022;-72
2022/05/30 10:59:19;;;;;;;1.60;0.70;;;21.10;87.90;;;;;;5011355;28;20026;-72
2022/05/30 11:02:05;;;;;;;2.47;1.08;;;21.40;89.20;;;;;;5011176;28;20038;-72
2022/05/30 11:05:01;;;;;;;0.45;0.30;;;21.60;90.00;;;;;;5011264;28;20050;-72
2022/05/30 11:07:48;;;;;;;2.72;0.60;;;21.50;88.50;;;;;;5011119;28;20034;-72
2022/05/30 11:10:25;;;;;;;1.50;0.57;;;21.90;87.60;;;;;;5011496;28;20105;-72
2022/05/30 11:13:07;;;;;;;3.38;0.70;;;21.90;90.60;;;;;;5011279;28;20084;-72
2022/05/30 11:15:43;;;;;;;3.80;0.75;;;22.00;87.50;;;;;;5011348;28;20032;-71
2022/05/30 11:18:19;;;;;;;1.48;0.57;;;21.60;87.70;;;;;;5011300;28;20045;-72
2022/05/30 11:21:20;;;;;;;1.73;0.60;;;21.70;89.10;;;;;;5011583;28;20101;-72
2022/05/30 11:23:46;;;;;;;2.20;0.75;;;22.00;90.50;;;;;;5011165;28;20033;-72
2022/05/30 11:26:41;;;;;;;3.28;0.90;;;21.90;90.30;;;;;;5010840;28;20029;-72
2022/05/30 11:29:34;;;;;;;1.65;0.75;;;22.00;89.60;;;;;;5011103;28;20025;-72
2022/05/30 11:32:07;;;;;;;2.88;1.05;;;22.20;88.60;;;;;;5010693;28;20026;-72
2022/05/30 11:34:40;;;;;;;2.15;0.80;;;22.00;90.30;;;;;;5010745;28;20033;-72
2022/05/30 11:37:18;;;;;;;3.08;0.82;;;22.00;89.70;;;;;;5010338;28;20041;-72
2022/05/30 11:39:58;;;;;;;1.85;0.80;;;22.20;90.40;;;;;;5010045;28;20084;-72
2022/05/30 11:42:31;;;;;;;2.10;0.50;;;22.00;89.80;;;;;;5010097;28;20114;-72
2022/05/30 11:45:25;;;;;;;2.77;0.87;;;22.30;90.20;;;;;;5010309;28;20433;-72
2022/05/30 11:48:09;;;;;;;0.98;0.50;;;21.80;89.80;;;;;;5010015;28;20312;-71
2022/05/30 11:50:37;;;;;;;;;;;22.20;90.10;;;;;;5010522;28;20104;-72
2022/05/30 11:53:42;;;;;;;2.30;0.70;;;22.10;89.30;;;;;;5010090;28;20370;-72
2022/05/30 11:56:44;;;;;;;1.20;0.40;;;22.00;89.50;;;;;;5010944;28;20018;-72
2022/05/30 11:59:49;;;;;;;4.75;0.80;;;22.30;89.60;;;;;;5010245;28;20026;-72
2022/05/30 12:02:26;;;;;;;2.00;0.60;;;22.60;88.20;;;;;;5010332;28;20030;-72
2022/05/30 12:05:26;;;;;;;9.50;0.90;;;22.50;88.30;;;;;;5009826;28;20056;-72
2022/05/30 12:08:04;;;;;;;3.25;0.70;;;22.30;90.70;;;;;;5008456;28;20042;-71
2022/05/30 12:10:50;;;;;;;1.65;0.80;;;22.50;89.50;;;;;;5010180;28;20108;-72
2022/05/30 12:13:39;;;;;;;6.88;0.80;;;22.80;90.00;;;;;;5009951;28;20026;-72
2022/05/30 12:16:40;;;;;;;1.15;0.60;;;22.50;88.60;;;;;;4999629;28;20038;-72
2022/05/30 12:24:58;;;;;;;3.03;0.65;;;22.50;88.50;;;;;;5009839;28;20092;-72
2022/05/30 12:27:28;;;;;;;0.80;0.50;;;22.60;89.20;;;;;;5009601;28;20456;-72
2022/05/30 12:29:54;;;;;;;3.80;0.82;;;22.70;87.90;;;;;;5009398;28;20480;-72
2022/05/30 12:32:24;;;;;;;9.57;1.05;;;23.00;90.40;;;;;;5009540;28;20033;-72
2022/05/30 12:35:05;;;;;;;3.53;0.82;;;22.90;89.00;;;;;;5009539;28;20057;-72
2022/05/30 12:37:44;;;;;;;4.78;0.82;;;22.90;88.70;;;;;;5009390;28;20022;-72
2022/05/30 12:40:13;;;;;;;3.03;0.80;;;22.60;88.40;;;;;;5009495;28;20052;-72
2022/05/30 12:42:43;;;;;;;1.95;0.80;;;22.80;88.30;;;;;;5009488;28;20105;-72
2022/05/30 12:45:22;;;;;;;3.15;0.90;;;22.60;89.50;;;;;;5008510;28;20361;-72
2022/05/30 12:47:52;;;;;;;1.73;0.80;;;22.60;89.80;;;;;;5009618;28;20528;-72
2022/05/30 12:50:23;;;;;;;1.48;0.73;;;23.00;88.50;;;;;;5009477;28;20033;-72
2022/05/30 12:52:54;;;;;;;1.83;0.80;;;23.20;88.10;;;;;;5008776;28;20061;-72
2022/05/30 12:55:41;;;;;;;4.68;1.05;;;23.80;89.20;;;;;;5024874;28;20026;-71
2022/05/30 12:58:09;;;;;;;4.00;1.05;;;23.80;88.90;;;;;;5021853;28;20104;-71
2022/05/30 13:00:42;;;;;;;3.13;0.88;;;23.50;88.20;;;;;;5026049;28;20040;-72
2022/05/30 13:03:23;;;;;;;2.58;0.80;;;23.30;88.70;;;;;;5025602;28;20550;-76
2022/05/30 13:06:26;;;;;;;2.65;0.88;;;22.80;87.50;;;;;;5023804;28;20617;-73
2022/05/30 13:08:55;;;;;;;2.00;0.95;;;22.40;88.20;;;;;;5026378;28;20479;-72
2022/05/30 13:11:30;;;;;;;2.50;1.05;;;22.40;89.60;;;;;;5024199;28;20029;-72
2022/05/30 13:14:06;;;;;;;1.48;0.90;;;22.70;89.30;;;;;;5016184;28;20026;-72
2022/05/30 13:16:39;;;;;;;1.42;0.60;;;23.00;89.50;;;;;;5025717;28;20159;-72
2022/05/30 13:19:09;;;;;;;2.63;1.05;;;22.80;88.70;;;;;;5022695;28;20095;-72
2022/05/30 13:21:35;;;;;;;3.40;0.95;;;23.20;89.40;;;;;;5025968;28;20026;-73
2022/05/30 13:24:00;;;;;;;1.83;0.95;;;23.40;87.80;;;;;;5026656;28;20029;-72
2022/05/30 13:26:32;;;;;;;2.67;0.82;;;23.20;87.20;;;;;;5026149;28;20613;-72
2022/05/30 13:29:00;;;;;;;3.60;1.38;;;23.20;89.80;;;;;;5020427;28;20033;-72
2022/05/30 13:31:28;;;;;;;1.88;0.95;;;23.30;87.60;;;;;;5024074;28;20034;-72
2022/05/30 13:33:54;;;;;;;2.47;1.10;;;23.00;86.00;;;;;;5023126;28;20038;-73